Terminal Aerodrome Forecast
Issued by NWS El Paso, TX

Home | Current Version | Previous Version | Text Only | Print | Product List | Glossary On
Versions: 1 2 3 4 5 6 7 8 9 10 11 12 13
000
FTUS44 KEPZ 191721
TAFELP
TAF
KELP 191721Z 1918/2018 12008KT P6SM SCT060 SCT120 BKN200
     FM192100 14010KT P6SM VCTS SCT050CB BKN100 BKN200
      TEMPO 1923/2003 VRB25G35KT 2SM TSRA BKN040CB BKN100
     FM200500 30010KT 6SM SHRA SCT020 BKN040 OVC100
      TEMPO 2005/2009 1SM +TSRA BKN015CB
     FM201000 02009KT 5SM SHRA BKN015 BKN030=

USA.gov is the U.S. government's official web portal to all federal, state and local government web resources and services.